Aérodrome :
LOGIN :

S'inscrire | Disclaimer

   EN    FR    IT 

 










Légende :    VFR   VFR Marginal   IFR   IFR Intensif   IFR Très Intensif
Visi : 
Plafond : 
>= 8 km
>= 3000ft
5 à 8 km
1000 à 3000 ft
1500m à 5 km
500 à 1000 ft
800 à 1500m
200 à 500 ft
< 800m
< 200 ft
Symboles :   Orages  Brouillard  Fortes neiges  Fortes précipitations  Vent > 20 kt
SIGMETs :   Divers  Orages  Givrage  Turbulence  Onde Orograph.  Cendres Volcan.







- Altitude de l'aérodrome : 2265 ft
- Code IATA : CZL


DABC - Mohamed Boudiaf Int. Constantine

DERNIER METAR :
  • 261530Z 30013KT 5000 -RA FEW023TCU OVC030 13/11 Q1012

METARs EXPIRÉS :
  • 261500Z 32011KT 9999 FEW023 FEW026TCU BKN033 15/10 Q1012
  • 261430Z 32015KT 9999 FEW020 FEW023TCU BKN033 15/10 Q1012
  • 261400Z 31015KT 9999 SCT020 BKN033 15/10 Q1012
  • 261330Z 32013KT 280V340 9999 SCT023 BKN033 17/11 Q1012
  • 261300Z 30016KT 9999 SCT020 BKN033 17/10 Q1012

TAF TAF DABC
Valide du 26 à 12h jusqu'au 27 à 12h UTC


261100Z 2612/2712 32016KT 8000 SCT020 FEW023TCU BKN026
TEMPO 2612/2624 -RA
PROB40
TEMPO 2615/2619 5000 -SHRA FEW026CB
BECMG 2622/2624 28008KT
TEMPO 2700/2709 3000 -RA SCT008 BKN016
BECMG 2709/2711 32012KT
Pas de NOTAMs connus pour ce terrain.



MET'MAP, la Météo Aéronautique d'un coup d'oeil ! - Copyright ORBIFLY Décembre 2007 - Disclaimer

ORBIFLY MET'MAP TEAM :

Programmation & Développement : Alexandra Zaïnal
Conception & Développement : Baudouin d'Aumeries
Co-Programmation & Développement : Marc-Olivier Méhu
Soutien technique & logistique : Manuel Goepfert

Contact : metmap@orbifly.com




SOURCES & CREDITS :

   NOAA